Main page
METAR-TAF:

METAR-TAF

Airports :

Uberlândia Airport

Uberlândia, Minas Gerais, Brazil

latitude: 18-53S, longitude: 048-14W, elevation: 943 m

Current weather observation

The report was made 11 hours and 5 minutes ago, at 03:00 UTC
Wind 4 kt from the South
Temperature 21°C
Humidity 83%
Pressure 1015 hPa
Visibility 10 km or more
no clouds below 1500 m and no cumulonimbus

METAR: SBUL 200300Z 18004KT CAVOK 21/18 Q1015

Time: 11:05 (14:05 UTC)

Forecast

The report was made 4 hours and 7 minutes ago, at 09:58 UTC
Forecast valid from 20 at 12 UTC to 20 at 24 UTC
Wind 10 kt from the East/Southeast
Visibility 10 km or more
no clouds below 1500 m and no cumulonimbus
Becoming
from 20 at 16 UTC to 20 at 18 UTC
Few clouds at a height of 4000 ft
Becoming
from 20 at 21 UTC to 20 at 23 UTC
Wind 8 kt from the South/Southeast
Visibility 10 km or more
no clouds below 1500 m and no cumulonimbus

TAF: SBUL 200958Z 2012/2024 12010KT CAVOK TN21/2012Z TX27/2017Z BECMG 2016/2018 FEW040 BECMG 2021/2023 16008KT CAVOK RMK PGM

Weather observations and forecasts of more than 4000 airports (METAR and TAF reports).

The available stations are represented by yellow and red dots on the map.

Hover mouse over dot to see the name of the station.

Then click to see weather observations and forecasts.

To change the map : click on the green buttons with a black cross to zoom in, on the green button with a dash to zoom out, or on the green arrows for adjacent maps.


METAR-TAF: